Time;durP1;ratioP1;P1;durP2;ratioP2;P2;SDS_P1;SDS_P2;PMS_P1;PMS_P2;Temp;Humidity;BMP_temperature;BMP_pressure;BME280_temperature;BME280_humidity;BME280_pressure;Samples;Min_cycle;Max_cycle;Signal;HPM_P1;HPM_P2
2021/09/22 05:26:49;;;;;;;1.45;1.00;;;9.50;84.60;;;;;;4821736;29;20057;-85
2021/09/22 05:29:34;;;;;;;2.00;1.10;;;9.50;84.50;;;;;;4796617;29;20049;-85
2021/09/22 05:32:00;;;;;;;2.50;1.20;;;9.50;84.60;;;;;;4862706;29;20041;-86
2021/09/22 05:34:28;;;;;;;2.33;1.13;;;9.50;84.70;;;;;;4832448;29;20073;-85
2021/09/22 05:36:54;;;;;;;1.77;1.10;;;9.70;84.90;;;;;;4896467;29;20056;-85
2021/09/22 05:39:21;;;;;;;2.63;1.50;;;9.50;84.80;;;;;;4850410;29;20040;-85
2021/09/22 05:41:47;;;;;;;1.50;1.10;;;9.50;84.80;;;;;;4863712;29;20040;-85
2021/09/22 05:44:15;;;;;;;1.67;1.10;;;9.50;84.80;;;;;;4843645;29;20445;-85
2021/09/22 05:46:41;;;;;;;1.98;1.10;;;9.50;84.80;;;;;;4847471;29;20048;-85
2021/09/22 05:49:07;;;;;;;1.67;1.17;;;9.50;84.80;;;;;;4828757;29;20045;-86
2021/09/22 05:51:33;;;;;;;2.30;1.30;;;9.60;84.90;;;;;;4843255;29;20061;-86
2021/09/22 05:53:59;;;;;;;2.25;1.30;;;9.60;84.90;;;;;;4842449;29;20033;-85
2021/09/22 05:56:25;;;;;;;3.30;1.25;;;9.60;84.90;;;;;;4859636;29;20833;-85
2021/09/22 05:58:51;;;;;;;2.25;1.40;;;9.60;84.80;;;;;;4860080;29;20053;-85
2021/09/22 06:01:17;;;;;;;1.98;1.33;;;9.80;84.90;;;;;;4850513;29;20420;-84
2021/09/22 06:03:43;;;;;;;2.75;1.52;;;9.70;84.90;;;;;;4830854;29;20041;-86
2021/09/22 06:06:09;;;;;;;2.35;1.42;;;9.70;84.90;;;;;;4828604;29;20060;-85
2021/09/22 06:08:36;;;;;;;1.73;1.08;;;9.80;84.90;;;;;;4839414;29;20049;-85
2021/09/22 06:11:06;;;;;;;3.53;1.40;;;9.70;84.80;;;;;;4841779;29;20056;-85
2021/09/22 06:13:32;;;;;;;2.10;1.20;;;9.80;84.80;;;;;;4825316;29;20045;-85
2021/09/22 06:16:01;;;;;;;2.42;1.40;;;9.90;84.80;;;;;;4815273;29;20566;-85
2021/09/22 06:18:27;;;;;;;3.17;1.70;;;9.90;84.70;;;;;;4824082;29;20054;-85
2021/09/22 06:20:56;;;;;;;2.00;1.10;;;9.80;84.70;;;;;;4811223;29;20045;-87
2021/09/22 06:23:22;;;;;;;2.88;1.30;;;9.90;84.70;;;;;;4825115;29;20044;-84
2021/09/22 06:25:50;;;;;;;1.65;1.00;;;10.00;84.70;;;;;;4825693;29;20484;-85
2021/09/22 06:28:16;;;;;;;1.83;1.27;;;10.00;84.80;;;;;;4826447;29;20144;-85
2021/09/22 06:30:42;;;;;;;2.13;1.33;;;10.00;84.60;;;;;;4841507;29;20572;-85
2021/09/22 06:33:07;;;;;;;2.45;1.27;;;10.10;84.70;;;;;;4844303;29;20045;-85
2021/09/22 06:36:02;;;;;;;1.55;1.05;;;10.20;84.60;;;;;;4846908;29;20472;-85
2021/09/22 06:38:28;;;;;;;1.15;1.05;;;10.20;84.60;;;;;;4798851;29;20093;-85
2021/09/22 06:40:54;;;;;;;1.33;0.90;;;10.30;84.50;;;;;;4784605;29;20549;-85
2021/09/22 06:43:59;;;;;;;2.20;1.10;;;10.30;84.50;;;;;;4788539;29;20038;-91
2021/09/22 06:46:52;;;;;;;2.15;1.10;;;10.50;84.50;;;;;;4777021;29;20075;-87
2021/09/22 06:49:18;;;;;;;1.75;1.23;;;10.50;84.30;;;;;;4777371;29;20151;-82
2021/09/22 06:51:44;;;;;;;2.20;1.30;;;10.60;84.20;;;;;;4759877;29;20151;-83
2021/09/22 06:54:09;;;;;;;3.15;1.60;;;10.70;84.10;;;;;;4762874;29;20047;-82
2021/09/22 06:56:35;;;;;;;1.55;1.15;;;10.80;84.10;;;;;;4772177;29;20054;-84
2021/09/22 06:59:36;;;;;;;3.42;1.65;;;10.90;84.10;;;;;;4753622;29;20138;-89
2021/09/22 07:55:33;;;;;;;2.55;1.67;;;12.40;82.90;;;;;;4701383;30;20076;-86
2021/09/22 07:58:21;;;;;;;3.15;1.67;;;12.50;82.80;;;;;;4694833;30;20057;-84
2021/09/22 08:00:48;;;;;;;2.67;1.58;;;12.60;82.90;;;;;;4643502;30;20051;-82
2021/09/22 08:04:16;;;;;;;2.08;1.45;;;12.70;82.80;;;;;;4660394;30;20532;-85
2021/09/22 08:06:42;;;;;;;2.28;1.63;;;12.70;82.90;;;;;;4602302;31;20068;-81
2021/09/22 08:09:14;;;;;;;3.03;1.48;;;12.80;82.80;;;;;;4568045;31;20210;-87
2021/09/22 08:12:18;;;;;;;3.65;1.83;;;13.00;82.80;;;;;;4578562;31;20057;-87
2021/09/22 08:18:02;;;;;;;1.90;1.38;;;13.20;82.50;;;;;;4551611;31;20049;-79
2021/09/22 08:20:28;;;;;;;3.25;1.80;;;13.40;82.50;;;;;;4563664;31;20091;-85
2021/09/22 08:22:53;;;;;;;3.33;1.90;;;13.40;82.50;;;;;;4564752;31;20105;-78
2021/09/22 08:25:20;;;;;;;5.60;1.98;;;13.50;82.50;;;;;;4606717;31;20046;-83
2021/09/22 08:27:45;;;;;;;4.38;2.03;;;13.60;82.50;;;;;;4640703;30;20132;-83
2021/09/22 08:33:45;;;;;;;2.15;1.48;;;13.70;82.50;;;;;;4665099;30;20130;-81
2021/09/22 08:36:11;;;;;;;1.67;1.20;;;13.80;82.40;;;;;;4675949;30;20053;-83
2021/09/22 08:38:37;;;;;;;2.58;1.58;;;13.90;82.40;;;;;;4705848;30;20106;-80
2021/09/22 08:41:03;;;;;;;3.63;1.67;;;13.90;82.30;;;;;;4750346;30;20059;-81
2021/09/22 08:43:30;;;;;;;2.33;1.40;;;14.00;82.30;;;;;;4798326;29;20074;-80
2021/09/22 08:46:07;;;;;;;1.80;1.38;;;14.10;82.20;;;;;;4789646;29;20773;-87
2021/09/22 08:55:53;;;;;;;2.85;1.40;;;14.50;81.80;;;;;;4712233;30;19931;-82
2021/09/22 08:58:19;;;;;;;1.73;1.20;;;14.50;81.60;;;;;;4718010;30;20111;-81
2021/09/22 09:00:48;;;;;;;2.55;1.55;;;14.60;81.60;;;;;;4700253;30;20049;-83
2021/09/22 09:03:33;;;;;;;2.83;1.80;;;14.70;81.70;;;;;;4684506;30;20046;-82
2021/09/22 09:06:21;;;;;;;3.40;1.80;;;14.50;81.60;;;;;;4696960;30;20152;-83
2021/09/22 09:08:58;;;;;;;1.83;1.33;;;14.60;81.60;;;;;;4697588;30;20045;-86
2021/09/22 09:11:27;;;;;;;2.92;1.75;;;14.70;81.60;;;;;;4694878;30;20438;-85
2021/09/22 09:14:28;;;;;;;2.67;1.67;;;14.80;81.60;;;;;;4694022;30;20117;-86
2021/09/22 09:17:19;;;;;;;;;;;14.80;81.60;;;;;;4697425;30;20072;-85
2021/09/22 09:27:10;;;;;;;3.08;1.80;;;15.00;81.30;;;;;;4671831;30;20058;-82
2021/09/22 09:29:40;;;;;;;2.42;1.67;;;14.90;81.10;;;;;;4669551;30;20082;-83
2021/09/22 09:32:20;;;;;;;3.92;2.05;;;15.00;81.00;;;;;;4693052;30;20536;-79
2021/09/22 09:35:04;;;;;;;2.75;1.80;;;15.10;80.90;;;;;;4684330;30;20046;-84
2021/09/22 09:40:38;;;;;;;2.38;1.52;;;15.10;80.80;;;;;;4696548;30;20103;-82
2021/09/22 09:43:08;;;;;;;3.63;1.90;;;15.20;80.80;;;;;;4707613;30;20064;-82
2021/09/22 09:46:05;;;;;;;3.10;1.95;;;15.30;80.70;;;;;;4757174;30;20108;-84
2021/09/22 09:48:59;;;;;;;3.67;1.83;;;15.40;80.30;;;;;;4732566;30;20068;-84
2021/09/22 09:51:47;;;;;;;2.42;1.60;;;15.50;80.20;;;;;;4737949;30;20052;-86
2021/09/22 09:54:39;;;;;;;3.50;1.98;;;15.60;80.10;;;;;;4666212;30;20058;-86
2021/09/22 09:57:14;;;;;;;4.60;2.00;;;15.70;80.00;;;;;;4646941;30;20566;-83
2021/09/22 10:03:25;;;;;;;3.25;1.88;;;15.90;79.70;;;;;;4641439;30;20085;-79
2021/09/22 10:05:52;;;;;;;2.75;1.60;;;15.90;79.40;;;;;;4683794;30;20032;-81
2021/09/22 10:08:21;;;;;;;3.40;2.05;;;16.00;79.30;;;;;;4703809;30;20569;-82
2021/09/22 10:11:03;;;;;;;3.80;2.22;;;16.00;79.20;;;;;;4718423;30;20045;-83
2021/09/22 10:13:37;;;;;;;3.10;2.13;;;16.10;79.00;;;;;;4733128;30;20045;-82
2021/09/22 10:16:03;;;;;;;4.47;2.65;;;16.20;78.90;;;;;;4717460;30;20064;-83
2021/09/22 10:18:29;;;;;;;3.30;2.15;;;16.30;78.70;;;;;;4724609;30;20119;-82
2021/09/22 10:20:56;;;;;;;4.28;2.30;;;16.30;78.50;;;;;;4780965;29;20127;-84
2021/09/22 10:23:23;;;;;;;2.40;1.80;;;16.40;78.40;;;;;;4784450;30;20059;-83
2021/09/22 10:25:50;;;;;;;2.63;1.70;;;16.50;78.40;;;;;;4789999;29;20054;-84
2021/09/22 10:28:15;;;;;;;3.78;2.00;;;16.50;78.40;;;;;;4839396;29;20034;-84
2021/09/22 10:30:44;;;;;;;3.50;2.08;;;16.50;78.40;;;;;;4824577;29;20042;-84
2021/09/22 10:33:27;;;;;;;3.35;1.92;;;16.50;78.40;;;;;;4824819;29;20058;-83
2021/09/22 10:35:56;;;;;;;2.40;1.67;;;16.50;78.30;;;;;;4839206;29;20544;-82
2021/09/22 10:38:44;;;;;;;3.20;1.60;;;16.70;78.20;;;;;;4839941;29;20447;-84
2021/09/22 10:41:11;;;;;;;3.17;1.88;;;16.70;78.10;;;;;;4810125;29;20101;-85
2021/09/22 10:43:40;;;;;;;2.10;1.40;;;16.80;78.00;;;;;;4809356;29;20034;-84
2021/09/22 10:46:16;;;;;;;2.42;1.60;;;16.80;77.80;;;;;;4811083;29;20049;-84
2021/09/22 10:48:58;;;;;;;1.98;1.33;;;16.90;77.80;;;;;;4843683;29;20061;-85
2021/09/22 10:51:35;;;;;;;1.70;1.20;;;16.90;77.80;;;;;;4844771;29;20037;-84
2021/09/22 10:54:07;;;;;;;4.32;2.00;;;16.90;77.80;;;;;;4817069;29;20393;-85
2021/09/22 10:56:33;;;;;;;3.22;2.00;;;17.00;77.90;;;;;;4830228;29;20524;-85
2021/09/22 10:59:03;;;;;;;4.15;2.50;;;17.00;77.70;;;;;;4833017;29;20057;-85
2021/09/22 11:01:49;;;;;;;3.22;2.05;;;17.10;77.50;;;;;;4814716;29;20038;-84
2021/09/22 11:04:15;;;;;;;3.22;1.83;;;17.20;77.20;;;;;;4828830;29;20045;-85
2021/09/22 11:06:54;;;;;;;2.70;2.00;;;17.20;77.20;;;;;;4829053;29;20485;-85
2021/09/22 11:09:30;;;;;;;2.63;1.63;;;17.40;77.10;;;;;;4827694;29;20066;-84
2021/09/22 11:12:03;;;;;;;2.88;1.60;;;17.40;76.90;;;;;;4827300;29;20110;-85
2021/09/22 11:14:43;;;;;;;3.55;1.77;;;17.40;76.80;;;;;;4808393;29;20050;-83
2021/09/22 11:17:29;;;;;;;3.53;1.88;;;17.50;76.70;;;;;;4822931;29;20429;-85
2021/09/22 11:20:33;;;;;;;2.35;1.48;;;17.50;76.70;;;;;;4787089;29;20154;-87
2021/09/22 11:23:14;;;;;;;1.73;1.42;;;17.60;76.50;;;;;;4787107;29;20055;-86
2021/09/22 11:25:48;;;;;;;2.58;1.70;;;17.70;76.40;;;;;;4774672;30;20084;-83
2021/09/22 11:28:14;;;;;;;2.13;1.40;;;17.70;76.30;;;;;;4779955;30;20044;-84
2021/09/22 11:30:41;;;;;;;2.28;1.63;;;17.70;76.20;;;;;;4787771;30;20533;-81
2021/09/22 11:34:16;;;;;;;2.17;1.42;;;17.80;76.20;;;;;;4789889;29;20039;-85
2021/09/22 11:36:41;;;;;;;2.97;1.55;;;17.90;76.00;;;;;;4757734;30;20048;-80
2021/09/22 11:39:39;;;;;;;2.28;1.35;;;17.90;75.90;;;;;;4772975;29;20475;-85
2021/09/22 11:42:26;;;;;;;1.58;1.20;;;18.10;75.80;;;;;;4756842;30;20111;-87
2021/09/22 11:44:54;;;;;;;1.63;1.02;;;18.10;75.70;;;;;;4773862;30;20048;-80
2021/09/22 11:47:20;;;;;;;1.75;1.20;;;18.20;75.50;;;;;;4788488;30;20051;-81
2021/09/22 11:49:47;;;;;;;2.70;1.73;;;18.20;75.40;;;;;;4781449;30;20392;-81
2021/09/22 11:52:16;;;;;;;3.25;1.90;;;18.40;75.30;;;;;;4782125;30;20043;-81
2021/09/22 11:54:48;;;;;;;2.47;1.50;;;18.40;74.80;;;;;;4780051;30;20047;-80
2021/09/22 11:57:16;;;;;;;2.78;1.48;;;18.50;74.90;;;;;;4790656;29;20109;-80
2021/09/22 11:59:45;;;;;;;2.30;1.40;;;18.70;74.80;;;;;;4818120;29;20019;-81
2021/09/22 12:02:12;;;;;;;2.85;1.40;;;18.70;74.50;;;;;;4818680;29;20039;-81
2021/09/22 12:04:41;;;;;;;1.98;1.15;;;18.80;74.40;;;;;;4809347;29;20089;-80
2021/09/22 12:07:08;;;;;;;2.03;1.35;;;18.80;74.30;;;;;;4803256;29;20107;-81
2021/09/22 12:09:48;;;;;;;2.67;1.63;;;18.90;74.10;;;;;;4820243;29;20059;-80
2021/09/22 12:12:18;;;;;;;4.03;1.52;;;18.90;73.90;;;;;;4827558;29;20072;-79
2021/09/22 12:14:48;;;;;;;1.70;1.20;;;18.90;73.80;;;;;;4863542;29;20051;-80
2021/09/22 12:17:16;;;;;;;2.28;1.33;;;19.00;73.70;;;;;;4860359;29;20060;-79
2021/09/22 12:19:43;;;;;;;1.35;1.02;;;19.10;73.80;;;;;;4865764;29;20098;-80
2021/09/22 12:22:10;;;;;;;2.00;1.38;;;19.10;73.60;;;;;;4864097;29;20046;-80
2021/09/22 12:24:38;;;;;;;2.80;1.42;;;19.10;73.50;;;;;;4861543;29;20065;-81
2021/09/22 12:27:23;;;;;;;3.58;1.70;;;19.20;73.50;;;;;;4838226;29;20085;-83
2021/09/22 12:30:53;;;;;;;1.85;1.20;;;19.20;73.20;;;;;;4811484;29;20053;-82
2021/09/22 12:33:42;;;;;;;1.92;1.10;;;19.30;73.20;;;;;;4844526;29;20042;-83
2021/09/22 12:36:10;;;;;;;1.10;1.00;;;19.40;73.00;;;;;;4790333;29;20050;-85
2021/09/22 12:39:37;;;;;;;2.15;1.10;;;19.40;73.00;;;;;;4813459;29;20050;-86
2021/09/22 12:45:42;;;;;;;1.23;1.00;;;19.50;73.00;;;;;;4712474;30;20169;-83
2021/09/22 12:48:57;;;;;;;1.25;1.10;;;19.60;73.60;;;;;;4717175;30;20090;-86
2021/09/22 12:51:46;;;;;;;1.70;0.82;;;19.50;72.70;;;;;;4703026;30;20060;-86
2021/09/22 12:58:31;;;;;;;2.53;1.27;;;19.50;72.90;;;;;;4603488;31;20675;-86
2021/09/22 13:01:00;;;;;;;1.50;1.20;;;19.60;72.70;;;;;;4613474;31;20123;-81
2021/09/22 13:03:29;;;;;;;2.50;1.10;;;19.70;72.60;;;;;;4600148;31;20052;-81
2021/09/22 13:06:23;;;;;;;1.90;1.13;;;19.70;72.50;;;;;;4585480;31;20110;-89
2021/09/22 13:12:29;;;;;;;1.63;1.10;;;19.70;72.40;;;;;;4563194;31;20065;-84
2021/09/22 13:14:55;;;;;;;1.50;1.23;;;19.80;72.40;;;;;;4596722;31;20094;-86
2021/09/22 13:17:52;;;;;;;1.80;1.08;;;19.80;72.30;;;;;;4593709;31;20061;-88
2021/09/22 13:20:18;;;;;;;2.60;1.40;;;19.80;72.90;;;;;;4587294;31;20075;-83
2021/09/22 13:22:44;;;;;;;2.35;1.33;;;19.80;72.20;;;;;;4638146;30;20426;-79
2021/09/22 13:25:10;;;;;;;3.15;1.45;;;19.90;72.00;;;;;;4661574;30;20154;-79
2021/09/22 13:27:38;;;;;;;1.58;1.27;;;19.90;71.90;;;;;;4650636;30;20055;-84
2021/09/22 13:30:04;;;;;;;2.25;1.50;;;20.00;71.80;;;;;;4662110;30;20057;-81
2021/09/22 13:34:21;;;;;;;2.50;1.25;;;20.10;71.60;;;;;;4660144;30;20087;-89
2021/09/22 13:41:59;;;;;;;1.40;1.00;;;20.00;71.70;;;;;;4730460;30;20909;-90
2021/09/22 13:45:18;;;;;;;1.48;1.00;;;20.00;71.80;;;;;;4731086;30;20497;-87
2021/09/22 13:47:44;;;;;;;1.00;0.80;;;20.00;71.80;;;;;;4735116;29;20060;-82
2021/09/22 13:50:14;;;;;;;1.67;0.95;;;19.90;71.80;;;;;;4821325;29;20425;-83
2021/09/22 13:53:51;;;;;;;1.38;0.88;;;19.90;72.00;;;;;;4786621;29;20534;-84
2021/09/22 13:56:52;;;;;;;1.88;1.20;;;19.80;72.00;;;;;;4745802;30;20045;-87
2021/09/22 13:59:59;;;;;;;1.60;0.93;;;19.80;72.00;;;;;;4750870;30;20044;-86
2021/09/22 14:04:21;;;;;;;0.93;0.90;;;19.60;72.10;;;;;;4745610;30;20055;-90
2021/09/22 14:06:30;;;;;;;0.82;0.77;;;19.70;72.40;;;;;;4744683;30;20052;-87
2021/09/22 14:13:24;;;;;;;0.93;0.70;;;19.70;72.10;;;;;;4649580;30;20150;-88
2021/09/22 14:16:46;;;;;;;1.60;0.90;;;19.70;72.00;;;;;;4650877;30;20061;-89
2021/09/22 14:19:13;;;;;;;2.58;1.08;;;19.70;72.00;;;;;;4682278;30;20145;-83
2021/09/22 14:21:43;;;;;;;0.70;0.70;;;19.70;72.00;;;;;;4684864;30;20053;-78
2021/09/22 14:24:08;;;;;;;2.10;0.75;;;19.70;72.00;;;;;;4685996;30;20057;-80
2021/09/22 14:26:39;;;;;;;0.50;0.50;;;19.70;72.00;;;;;;4695391;30;20094;-83
2021/09/22 14:29:33;;;;;;;1.17;0.88;;;19.60;72.00;;;;;;4703885;30;20049;-84
2021/09/22 14:31:58;;;;;;;1.27;0.90;;;19.60;72.00;;;;;;4670613;30;20064;-83
2021/09/22 14:34:24;;;;;;;1.48;0.93;;;19.60;72.00;;;;;;4668636;30;20046;-84
2021/09/22 14:36:50;;;;;;;1.40;0.85;;;19.60;72.00;;;;;;4670115;30;20054;-84
2021/09/22 14:39:16;;;;;;;1.70;1.13;;;19.50;72.00;;;;;;4669560;30;20398;-82
2021/09/22 14:41:42;;;;;;;1.58;0.90;;;19.50;72.10;;;;;;4666516;30;20042;-82
2021/09/22 14:44:08;;;;;;;1.65;1.10;;;19.50;71.90;;;;;;4684181;30;20128;-82
2021/09/22 14:46:34;;;;;;;1.23;0.90;;;19.50;72.00;;;;;;4686744;30;20112;-83
2021/09/22 14:48:59;;;;;;;1.08;0.98;;;19.50;71.90;;;;;;4686552;30;20100;-84
2021/09/22 14:51:28;;;;;;;1.00;0.80;;;19.50;71.80;;;;;;4685018;30;20046;-87
2021/09/22 14:53:55;;;;;;;1.50;1.02;;;19.50;71.90;;;;;;4703625;30;20099;-82
2021/09/22 14:59:50;;;;;;;1.10;0.98;;;19.50;71.70;;;;;;4644275;30;20043;-87
2021/09/22 15:02:16;;;;;;;3.20;1.30;;;19.50;71.60;;;;;;4637114;30;20058;-82
2021/09/22 15:04:44;;;;;;;2.03;1.20;;;19.60;71.40;;;;;;4652681;30;20133;-84
2021/09/22 15:07:42;;;;;;;1.90;1.10;;;19.60;71.20;;;;;;4633649;30;20432;-88
2021/09/22 15:11:19;;;;;;;1.70;1.30;;;19.50;71.10;;;;;;4648571;30;20057;-92
2021/09/22 15:13:45;;;;;;;1.00;0.90;;;19.50;71.00;;;;;;4661435;30;20047;-83
2021/09/22 15:16:53;;;;;;;1.77;1.10;;;19.50;71.00;;;;;;4667662;30;20130;-84
2021/09/22 15:27:07;;;;;;;0.73;0.60;;;19.50;71.00;;;;;;4599315;31;20060;-90
2021/09/22 15:29:49;;;;;;;1.83;1.13;;;19.50;71.00;;;;;;4585446;31;20056;-83
2021/09/22 15:32:14;;;;;;;0.90;0.80;;;19.50;71.00;;;;;;4624780;31;20100;-82
2021/09/22 15:34:43;;;;;;;1.40;0.98;;;19.50;70.90;;;;;;4596590;31;20635;-82
2021/09/22 15:37:09;;;;;;;1.27;1.05;;;19.40;70.80;;;;;;4651004;30;20578;-81
2021/09/22 15:39:34;;;;;;;0.52;0.52;;;19.40;70.70;;;;;;4681442;30;20054;-83
2021/09/22 15:42:00;;;;;;;0.75;0.75;;;19.50;70.70;;;;;;4652834;30;20057;-82
2021/09/22 15:44:26;;;;;;;1.55;0.90;;;19.40;70.70;;;;;;4652541;30;20042;-83
2021/09/22 15:46:51;;;;;;;1.13;0.90;;;19.40;70.80;;;;;;4666597;30;20128;-83
2021/09/22 15:49:17;;;;;;;1.95;0.85;;;19.40;70.80;;;;;;4681121;30;20065;-83
2021/09/22 15:51:43;;;;;;;1.33;0.95;;;19.40;70.80;;;;;;4668294;30;20684;-82
2021/09/22 15:54:08;;;;;;;1.83;0.70;;;19.40;70.70;;;;;;4667539;30;20053;-80
2021/09/22 15:56:35;;;;;;;0.60;0.60;;;19.30;70.60;;;;;;4664567;30;20133;-81
2021/09/22 15:59:00;;;;;;;0.57;0.55;;;19.40;70.70;;;;;;4811573;29;20057;-82
2021/09/22 16:01:26;;;;;;;0.80;0.77;;;19.30;70.70;;;;;;4811075;29;20038;-81
2021/09/22 16:03:52;;;;;;;0.77;0.70;;;19.30;70.80;;;;;;4825357;29;20539;-80
2021/09/22 16:06:18;;;;;;;0.70;0.70;;;19.20;70.80;;;;;;4828318;29;20128;-82
2021/09/22 16:08:44;;;;;;;0.80;0.60;;;19.20;71.00;;;;;;4827229;29;20460;-78
2021/09/22 16:11:10;;;;;;;1.00;0.80;;;19.10;71.00;;;;;;4844756;29;20077;-80
2021/09/22 16:13:36;;;;;;;1.20;0.68;;;19.20;71.20;;;;;;4829629;29;20129;-80
2021/09/22 16:16:02;;;;;;;0.82;0.80;;;19.10;71.20;;;;;;4827256;29;20405;-81
2021/09/22 16:18:33;;;;;;;1.15;0.90;;;19.10;71.20;;;;;;4825917;29;20034;-81
2021/09/22 16:20:59;;;;;;;1.35;0.90;;;19.00;71.00;;;;;;4813230;29;20114;-80
2021/09/22 16:23:24;;;;;;;1.58;0.90;;;19.10;71.00;;;;;;4841027;29;20046;-81
2021/09/22 16:25:50;;;;;;;0.73;0.65;;;19.00;71.00;;;;;;4842130;29;20046;-81
2021/09/22 16:28:16;;;;;;;2.33;1.10;;;19.10;71.10;;;;;;4842366;29;20509;-81
2021/09/22 16:30:42;;;;;;;1.15;0.85;;;19.00;71.00;;;;;;4810333;29;20084;-80
2021/09/22 16:33:07;;;;;;;0.75;0.70;;;19.00;71.70;;;;;;4826334;29;20030;-80
2021/09/22 16:35:33;;;;;;;1.80;0.95;;;19.00;71.10;;;;;;4842667;29;20358;-80
2021/09/22 16:37:59;;;;;;;0.95;0.85;;;19.00;71.10;;;;;;4825866;29;20042;-81
2021/09/22 16:40:25;;;;;;;1.15;1.00;;;18.90;71.00;;;;;;4842262;29;20037;-79
2021/09/22 16:42:50;;;;;;;2.10;0.80;;;18.90;71.30;;;;;;4840658;29;20130;-79
2021/09/22 16:45:17;;;;;;;0.77;0.63;;;18.80;70.90;;;;;;4823803;29;20040;-79
2021/09/22 16:47:43;;;;;;;0.68;0.55;;;18.80;71.00;;;;;;4844466;29;20056;-79
2021/09/22 16:50:09;;;;;;;1.27;0.70;;;18.90;71.20;;;;;;4843854;29;20412;-77
2021/09/22 16:52:35;;;;;;;0.73;0.68;;;18.70;71.10;;;;;;4826244;29;20046;-78
2021/09/22 16:55:01;;;;;;;1.20;0.77;;;18.70;71.30;;;;;;4825231;29;20038;-79
2021/09/22 16:57:27;;;;;;;0.75;0.70;;;18.60;71.40;;;;;;4842877;29;20058;-78
2021/09/22 16:59:53;;;;;;;0.75;0.60;;;18.60;71.60;;;;;;4846257;29;20034;-77
2021/09/22 17:02:18;;;;;;;0.68;0.60;;;18.40;71.80;;;;;;4825155;29;20403;-77
2021/09/22 17:04:46;;;;;;;0.77;0.52;;;18.30;72.70;;;;;;4843011;29;20049;-80
2021/09/22 17:07:12;;;;;;;0.75;0.63;;;18.20;72.30;;;;;;4842086;29;20037;-80
2021/09/22 17:09:38;;;;;;;0.85;0.70;;;18.10;72.60;;;;;;4841727;29;20042;-81
2021/09/22 17:12:04;;;;;;;0.85;0.70;;;18.00;72.90;;;;;;4841777;29;20045;-80
2021/09/22 17:14:30;;;;;;;1.40;0.80;;;17.90;73.10;;;;;;4842154;29;20042;-81
2021/09/22 17:16:56;;;;;;;1.00;0.80;;;17.80;73.30;;;;;;4826843;29;20075;-81
2021/09/22 17:19:22;;;;;;;0.98;0.60;;;17.70;73.60;;;;;;4842228;29;20512;-80
2021/09/22 17:21:48;;;;;;;0.52;0.47;;;17.60;73.70;;;;;;4825091;29;20433;-80
2021/09/22 17:24:14;;;;;;;0.68;0.50;;;17.50;73.90;;;;;;4840247;29;20026;-80
2021/09/22 17:26:40;;;;;;;0.80;0.60;;;17.50;74.10;;;;;;4824706;29;20125;-80
2021/09/22 17:29:06;;;;;;;0.95;0.85;;;17.40;74.30;;;;;;4841724;29;20038;-78
2021/09/22 17:31:32;;;;;;;0.95;0.60;;;17.20;74.50;;;;;;4847641;29;20110;-80
2021/09/22 17:33:58;;;;;;;1.25;0.80;;;17.20;74.70;;;;;;4826432;29;20052;-80
2021/09/22 17:36:24;;;;;;;1.30;0.85;;;17.00;74.70;;;;;;4825265;29;20038;-81
2021/09/22 17:38:50;;;;;;;1.33;0.60;;;17.00;74.90;;;;;;4809417;29;20065;-80
2021/09/22 17:41:22;;;;;;;0.98;0.60;;;16.90;75.00;;;;;;4843309;29;20026;-79
2021/09/22 17:43:53;;;;;;;0.57;0.57;;;16.80;75.10;;;;;;4827342;29;20524;-81
2021/09/22 17:46:24;;;;;;;0.52;0.50;;;16.70;75.20;;;;;;4847713;29;20037;-77
2021/09/22 17:48:51;;;;;;;1.08;0.80;;;16.70;75.40;;;;;;4839899;29;20050;-82
2021/09/22 17:51:25;;;;;;;0.75;0.60;;;16.60;75.50;;;;;;4825109;29;20129;-79
2021/09/22 17:53:57;;;;;;;0.60;0.60;;;16.50;75.70;;;;;;4820100;29;20561;-79
2021/09/22 17:56:24;;;;;;;0.98;0.60;;;16.50;75.90;;;;;;4817354;29;20156;-79
2021/09/22 17:59:21;;;;;;;0.80;0.80;;;16.30;75.90;;;;;;4823931;29;20065;-81
2021/09/22 18:02:36;;;;;;;0.70;0.68;;;16.30;76.10;;;;;;4805574;29;20505;-86
2021/09/22 18:05:13;;;;;;;0.60;0.57;;;16.20;76.20;;;;;;4824044;29;20482;-83
2021/09/22 18:07:42;;;;;;;0.50;0.40;;;16.10;76.30;;;;;;4771145;30;20044;-82
2021/09/22 18:10:12;;;;;;;1.13;0.80;;;16.10;76.30;;;;;;4772344;30;20048;-83
2021/09/22 18:12:43;;;;;;;0.50;0.50;;;16.10;76.40;;;;;;4715840;30;20054;-82
2021/09/22 18:22:52;;;;;;;0.60;0.60;;;15.80;76.60;;;;;;4728217;30;20412;-85
2021/09/22 18:25:54;;;;;;;1.13;0.50;;;15.70;76.70;;;;;;4707098;30;20064;-88
2021/09/22 18:42:32;;;;;;;1.48;1.10;;;15.30;77.20;;;;;;4659306;30;20537;-85
2021/09/22 18:46:05;;;;;;;2.00;1.20;;;15.30;77.00;;;;;;4660536;30;20050;-86
2021/09/22 18:48:49;;;;;;;1.60;0.90;;;15.40;76.70;;;;;;4597948;31;20137;-84
2021/09/22 18:58:44;;;;;;;1.17;0.90;;;15.50;76.00;;;;;;5057773;23;20037;-82
2021/09/22 19:01:10;;;;;;;1.45;0.75;;;15.40;76.10;;;;;;4820713;29;20066;-81
2021/09/22 19:04:29;;;;;;;0.95;0.82;;;15.30;76.20;;;;;;4847136;29;20043;-88
2021/09/22 19:13:57;;;;;;;1.23;0.75;;;15.00;76.80;;;;;;4843899;29;20092;-84
2021/09/22 19:19:53;;;;;;;1.10;0.70;;;14.90;77.20;;;;;;4843364;29;20145;-81
2021/09/22 19:22:19;;;;;;;1.50;0.80;;;14.90;77.20;;;;;;4827177;29;20503;-81
2021/09/22 19:25:21;;;;;;;1.02;0.85;;;14.90;77.20;;;;;;4826872;29;20106;-86
2021/09/22 19:31:44;;;;;;;0.98;0.80;;;14.80;77.30;;;;;;5007588;23;20052;-89
2021/09/22 19:34:10;;;;;;;1.40;0.90;;;14.70;77.30;;;;;;4818774;29;20047;-85
2021/09/22 19:36:45;;;;;;;1.33;0.80;;;14.70;77.30;;;;;;4809139;29;20070;-85
2021/09/22 19:54:45;;;;;;;1.48;1.10;;;14.40;77.70;;;;;;4742357;30;20063;-88
2021/09/22 19:58:24;;;;;;;1.52;1.17;;;14.30;77.90;;;;;;4721108;30;20072;-86
2021/09/22 20:00:50;;;;;;;1.38;0.80;;;14.20;78.20;;;;;;4716750;30;20108;-83
2021/09/22 20:03:40;;;;;;;1.15;0.93;;;14.10;78.30;;;;;;4701749;30;20056;-84
2021/09/22 20:06:06;;;;;;;1.20;1.00;;;14.10;78.60;;;;;;4706045;30;20027;-84
2021/09/22 20:09:00;;;;;;;1.33;0.90;;;14.00;78.60;;;;;;4715342;30;20049;-83
2021/09/22 20:11:54;;;;;;;1.70;1.00;;;13.90;78.70;;;;;;4730362;30;20118;-84
2021/09/22 20:18:21;;;;;;;1.27;1.00;;;13.80;78.90;;;;;;4729270;30;20068;-86
2021/09/22 20:28:38;;;;;;;1.52;1.05;;;13.70;79.30;;;;;;4803086;29;20150;-79
2021/09/22 20:35:25;;;;;;;1.63;1.20;;;13.50;79.40;;;;;;4746433;30;20071;-89
2021/09/22 20:37:53;;;;;;;1.33;0.93;;;13.40;79.50;;;;;;4679656;30;20591;-84
2021/09/22 20:40:37;;;;;;;1.92;1.23;;;13.40;79.60;;;;;;4671324;30;20049;-84
2021/09/22 20:44:12;;;;;;;1.58;1.40;;;13.30;79.80;;;;;;4666523;30;20061;-92
2021/09/22 20:50:37;;;;;;;0.98;0.77;;;13.20;79.90;;;;;;4652790;30;20051;-84
2021/09/22 21:07:34;;;;;;;1.02;0.80;;;13.00;80.10;;;;;;4823131;29;20099;-83
2021/09/22 21:10:23;;;;;;;1.30;1.00;;;12.90;80.00;;;;;;4795712;29;20039;-88
2021/09/22 21:19:53;;;;;;;1.27;1.02;;;12.90;80.30;;;;;;5078940;23;20437;-86
2021/09/22 21:25:50;;;;;;;1.50;0.88;;;12.90;80.30;;;;;;4843629;29;20494;-85
2021/09/22 21:28:50;;;;;;;1.15;0.93;;;12.80;80.20;;;;;;4824937;29;20056;-86
2021/09/22 21:31:16;;;;;;;1.10;1.00;;;12.90;80.30;;;;;;4825794;29;20534;-85
2021/09/22 21:33:50;;;;;;;2.10;1.33;;;12.90;80.10;;;;;;4825342;29;20354;-85
2021/09/22 21:36:16;;;;;;;1.80;1.08;;;13.00;79.80;;;;;;4824875;29;20058;-83
2021/09/22 21:38:46;;;;;;;1.35;1.00;;;13.00;79.70;;;;;;4841395;29;20145;-85
2021/09/22 21:41:23;;;;;;;1.35;0.93;;;13.10;79.80;;;;;;4840231;29;20050;-87
2021/09/22 21:44:00;;;;;;;1.30;1.00;;;13.10;79.90;;;;;;4768961;30;20125;-85
2021/09/22 21:46:25;;;;;;;1.33;1.00;;;13.00;79.90;;;;;;4726320;30;20126;-86
2021/09/22 21:48:51;;;;;;;1.90;1.10;;;12.90;79.90;;;;;;4738856;30;20091;-84
2021/09/22 21:51:17;;;;;;;1.75;1.20;;;12.90;80.10;;;;;;4738538;30;20040;-84
2021/09/22 21:53:43;;;;;;;2.35;1.30;;;12.90;80.20;;;;;;4737851;30;20058;-85
2021/09/22 21:56:19;;;;;;;2.15;1.20;;;12.80;80.30;;;;;;4752660;30;20051;-86
2021/09/22 21:58:47;;;;;;;1.00;0.90;;;12.80;80.40;;;;;;4751407;30;20055;-82
2021/09/22 22:01:13;;;;;;;2.40;1.23;;;12.80;80.50;;;;;;4768189;29;20035;-81
2021/09/22 22:04:04;;;;;;;1.20;1.00;;;12.70;80.50;;;;;;4786207;29;20131;-85
2021/09/22 22:06:32;;;;;;;0.83;0.80;;;12.70;80.60;;;;;;4713669;30;20041;-85
2021/09/22 22:08:58;;;;;;;1.65;1.02;;;12.70;80.70;;;;;;4753748;29;20047;-81
2021/09/22 22:11:24;;;;;;;0.98;0.80;;;12.60;80.80;;;;;;4785061;29;20410;-80
2021/09/22 22:13:53;;;;;;;1.73;1.23;;;12.60;80.80;;;;;;4787235;29;20557;-85
2021/09/22 22:16:19;;;;;;;1.65;1.17;;;12.50;80.90;;;;;;4771444;29;20139;-82
2021/09/22 22:18:45;;;;;;;1.70;1.30;;;12.50;81.00;;;;;;4778769;29;20514;-83
2021/09/22 22:21:11;;;;;;;1.50;1.10;;;12.50;81.00;;;;;;4769960;29;20075;-82
2021/09/22 22:23:37;;;;;;;1.52;1.20;;;12.60;81.20;;;;;;4798787;29;20441;-84
2021/09/22 22:26:09;;;;;;;1.40;0.93;;;12.40;81.20;;;;;;4780787;29;20055;-86
2021/09/22 22:29:07;;;;;;;2.22;1.35;;;12.40;81.20;;;;;;4767659;30;20404;-88
2021/09/22 22:31:34;;;;;;;2.25;1.35;;;12.40;81.40;;;;;;4820251;29;20477;-84